Main page
METAR-TAF:

METAR-TAF

Airports :

Black River Falls Area Airport

Black River Falls, Wisconsin, United States

latitude: 44-15-03N, longitude: 090-51-19W, elevation: 836 ft

Current weather observation

The report was made 29 minutes ago, at 19:55 UTC
Wind 5 mph from the West/Southwest
Temperature 48°F
Humidity 46%
Pressure 29.92 in. Hg
Visibility: 10 miles
Clear sky

METAR: KBCK 281955Z AUTO 24004KT 10SM CLR 09/M02 A2992 RMK AO2 T00901021

Time: 14:24 (20:24 UTC)


TAF: missing

Weather observations and forecasts of more than 4000 airports (METAR and TAF reports).

The available stations are represented by yellow and red dots on the map.

Hover mouse over dot to see the name of the station.

Then click to see weather observations and forecasts.

To change the map : click on the green buttons with a black cross to zoom in, on the green button with a dash to zoom out, or on the green arrows for adjacent maps.


METAR-TAF: